sensor_id;sensor_type;location;lat;lon;timestamp;pressure;altitude;pressure_sealevel;temperature;humidity
54854;BME280;40747;49.480;8.658;2024-03-02T00:00:22;99129.63;;;7.53;92.89
54854;BME280;40747;49.480;8.658;2024-03-02T00:02:49;99132.38;;;7.50;92.73
54854;BME280;40747;49.480;8.658;2024-03-02T00:05:20;99133.19;;;7.50;94.31
54854;BME280;40747;49.480;8.658;2024-03-02T00:07:55;99138.56;;;7.47;93.60
54854;BME280;40747;49.480;8.658;2024-03-02T00:10:40;99127.34;;;7.44;94.60
54854;BME280;40747;49.480;8.658;2024-03-02T00:13:07;99131.56;;;7.48;94.21
54854;BME280;40747;49.480;8.658;2024-03-02T00:15:47;99129.59;;;7.54;93.70
54854;BME280;40747;49.480;8.658;2024-03-02T00:18:19;99119.88;;;7.57;93.70
54854;BME280;40747;49.480;8.658;2024-03-02T00:20:53;99101.66;;;7.53;93.23
54854;BME280;40747;49.480;8.658;2024-03-02T00:23:21;99118.75;;;7.64;92.46
54854;BME280;40747;49.480;8.658;2024-03-02T00:25:54;99119.03;;;7.56;92.27
54854;BME280;40747;49.480;8.658;2024-03-02T00:28:22;99114.63;;;7.57;92.90
54854;BME280;40747;49.480;8.658;2024-03-02T00:33:37;99107.69;;;7.32;94.64
54854;BME280;40747;49.480;8.658;2024-03-02T00:36:05;99113.00;;;7.30;94.76
54854;BME280;40747;49.480;8.658;2024-03-02T00:38:32;99102.69;;;7.26;94.89
54854;BME280;40747;49.480;8.658;2024-03-02T00:41:04;99114.28;;;7.18;95.22
54854;BME280;40747;49.480;8.658;2024-03-02T00:43:41;99119.59;;;7.17;95.52
54854;BME280;40747;49.480;8.658;2024-03-02T00:46:08;99092.22;;;7.00;94.94
54854;BME280;40747;49.480;8.658;2024-03-02T00:48:35;99121.28;;;7.18;95.33
54854;BME280;40747;49.480;8.658;2024-03-02T00:51:02;99120.97;;;7.27;94.87
54854;BME280;40747;49.480;8.658;2024-03-02T00:53:32;99119.09;;;7.31;94.14
54854;BME280;40747;49.480;8.658;2024-03-02T00:55:58;99124.81;;;7.17;94.33
54854;BME280;40747;49.480;8.658;2024-03-02T00:58:27;99113.72;;;7.10;94.49
54854;BME280;40747;49.480;8.658;2024-03-02T01:00:54;99119.00;;;7.09;94.55
54854;BME280;40747;49.480;8.658;2024-03-02T01:03:21;99125.25;;;7.04;95.19
54854;BME280;40747;49.480;8.658;2024-03-02T01:05:46;99125.94;;;7.10;94.83
54854;BME280;40747;49.480;8.658;2024-03-02T01:08:12;99122.47;;;7.09;93.73
54854;BME280;40747;49.480;8.658;2024-03-02T01:10:39;99122.47;;;7.09;93.77
54854;BME280;40747;49.480;8.658;2024-03-02T01:13:08;99126.75;;;7.12;94.46
54854;BME280;40747;49.480;8.658;2024-03-02T01:15:34;99127.72;;;7.09;94.35
54854;BME280;40747;49.480;8.658;2024-03-02T01:18:00;99132.94;;;7.09;94.71
54854;BME280;40747;49.480;8.658;2024-03-02T01:20:26;99144.06;;;7.16;94.49
54854;BME280;40747;49.480;8.658;2024-03-02T01:22:53;99146.41;;;7.24;94.45
54854;BME280;40747;49.480;8.658;2024-03-02T01:25:19;99148.06;;;7.26;93.58
54854;BME280;40747;49.480;8.658;2024-03-02T01:27:46;99148.03;;;7.28;93.24
54854;BME280;40747;49.480;8.658;2024-03-02T01:30:12;99146.13;;;7.31;92.64
54854;BME280;40747;49.480;8.658;2024-03-02T01:32:38;99143.50;;;7.31;91.98
54854;BME280;40747;49.480;8.658;2024-03-02T01:35:05;99132.34;;;7.26;91.35
54854;BME280;40747;49.480;8.658;2024-03-02T01:37:33;99130.88;;;7.19;91.57
54854;BME280;40747;49.480;8.658;2024-03-02T01:39:59;99134.50;;;7.15;91.15
54854;BME280;40747;49.480;8.658;2024-03-02T01:42:25;99132.00;;;7.12;90.93
54854;BME280;40747;49.480;8.658;2024-03-02T01:44:51;99136.25;;;7.14;90.98
54854;BME280;40747;49.480;8.658;2024-03-02T01:47:18;99115.59;;;7.07;91.10
54854;BME280;40747;49.480;8.658;2024-03-02T01:49:44;99120.06;;;7.03;91.30
54854;BME280;40747;49.480;8.658;2024-03-02T01:52:10;99122.88;;;6.98;91.77
54854;BME280;40747;49.480;8.658;2024-03-02T01:54:37;99116.00;;;6.94;91.45
54854;BME280;40747;49.480;8.658;2024-03-02T01:57:04;99109.81;;;6.97;91.27
54854;BME280;40747;49.480;8.658;2024-03-02T01:59:30;99105.72;;;6.89;91.30
54854;BME280;40747;49.480;8.658;2024-03-02T02:01:56;99113.88;;;6.80;92.50
54854;BME280;40747;49.480;8.658;2024-03-02T02:04:22;99101.22;;;6.68;92.89
54854;BME280;40747;49.480;8.658;2024-03-02T02:06:52;99092.03;;;6.56;93.85
54854;BME280;40747;49.480;8.658;2024-03-02T02:09:18;99097.16;;;6.59;94.31
54854;BME280;40747;49.480;8.658;2024-03-02T02:11:44;99092.88;;;6.56;94.10
54854;BME280;40747;49.480;8.658;2024-03-02T02:14:10;99091.31;;;6.51;94.25
54854;BME280;40747;49.480;8.658;2024-03-02T02:16:37;99087.91;;;6.49;94.64
54854;BME280;40747;49.480;8.658;2024-03-02T02:19:03;99096.72;;;6.46;94.90
54854;BME280;40747;49.480;8.658;2024-03-02T02:21:31;99088.06;;;6.44;94.88
54854;BME280;40747;49.480;8.658;2024-03-02T02:23:57;99081.38;;;6.35;95.21
54854;BME280;40747;49.480;8.658;2024-03-02T02:26:23;99087.97;;;6.47;95.14
54854;BME280;40747;49.480;8.658;2024-03-02T02:28:50;99088.13;;;6.43;95.27
54854;BME280;40747;49.480;8.658;2024-03-02T02:31:16;99082.75;;;6.47;95.24
54854;BME280;40747;49.480;8.658;2024-03-02T02:33:43;99079.75;;;6.58;95.14
54854;BME280;40747;49.480;8.658;2024-03-02T02:36:09;99076.81;;;6.42;94.96
54854;BME280;40747;49.480;8.658;2024-03-02T02:38:42;99083.38;;;6.54;95.40
54854;BME280;40747;49.480;8.658;2024-03-02T02:41:09;99079.09;;;6.51;95.07
54854;BME280;40747;49.480;8.658;2024-03-02T02:43:35;99073.06;;;6.49;94.63
54854;BME280;40747;49.480;8.658;2024-03-02T02:46:02;99070.25;;;6.55;94.62
54854;BME280;40747;49.480;8.658;2024-03-02T02:48:29;99073.72;;;6.56;94.32
54854;BME280;40747;49.480;8.658;2024-03-02T02:50:55;99067.56;;;6.57;93.88
54854;BME280;40747;49.480;8.658;2024-03-02T02:53:22;99059.78;;;6.55;93.95
54854;BME280;40747;49.480;8.658;2024-03-02T02:55:48;99066.59;;;6.60;93.55
54854;BME280;40747;49.480;8.658;2024-03-02T02:58:15;99063.09;;;6.61;93.50
54854;BME280;40747;49.480;8.658;2024-03-02T03:00:41;99068.50;;;6.56;93.83
54854;BME280;40747;49.480;8.658;2024-03-02T03:03:07;99024.22;;;6.25;94.01
54854;BME280;40747;49.480;8.658;2024-03-02T03:05:33;99054.66;;;6.52;93.91
54854;BME280;40747;49.480;8.658;2024-03-02T03:08:00;99065.16;;;6.51;94.23
54854;BME280;40747;49.480;8.658;2024-03-02T03:10:26;99063.47;;;6.50;94.10
54854;BME280;40747;49.480;8.658;2024-03-02T03:12:53;99044.56;;;6.42;93.83
54854;BME280;40747;49.480;8.658;2024-03-02T03:15:21;99068.59;;;6.53;93.82
54854;BME280;40747;49.480;8.658;2024-03-02T03:17:48;99052.06;;;6.51;93.59
54854;BME280;40747;49.480;8.658;2024-03-02T03:20:14;99059.97;;;6.49;93.15
54854;BME280;40747;49.480;8.658;2024-03-02T03:22:40;99055.72;;;6.47;93.20
54854;BME280;40747;49.480;8.658;2024-03-02T03:25:06;99054.66;;;6.52;93.05
54854;BME280;40747;49.480;8.658;2024-03-02T03:27:35;99051.09;;;6.55;92.97
54854;BME280;40747;49.480;8.658;2024-03-02T03:30:02;99030.44;;;6.47;92.83
54854;BME280;40747;49.480;8.658;2024-03-02T03:32:29;99048.69;;;6.49;92.71
54854;BME280;40747;49.480;8.658;2024-03-02T03:34:55;99044.00;;;6.59;92.37
54854;BME280;40747;49.480;8.658;2024-03-02T03:37:21;99049.22;;;6.59;92.20
54854;BME280;40747;49.480;8.658;2024-03-02T03:39:48;99033.13;;;6.44;91.93
54854;BME280;40747;49.480;8.658;2024-03-02T03:42:14;99046.75;;;6.54;92.07
54854;BME280;40747;49.480;8.658;2024-03-02T03:44:40;99046.00;;;6.50;92.20
54854;BME280;40747;49.480;8.658;2024-03-02T03:47:06;99024.25;;;6.48;91.74
54854;BME280;40747;49.480;8.658;2024-03-02T03:49:32;99037.09;;;6.56;91.62
54854;BME280;40747;49.480;8.658;2024-03-02T03:51:58;99030.31;;;6.50;92.02
54854;BME280;40747;49.480;8.658;2024-03-02T03:54:25;99034.78;;;6.47;91.88
54854;BME280;40747;49.480;8.658;2024-03-02T03:56:51;99054.59;;;6.54;91.64
54854;BME280;40747;49.480;8.658;2024-03-02T03:59:17;99049.22;;;6.59;91.81
54854;BME280;40747;49.480;8.658;2024-03-02T04:01:44;99042.28;;;6.58;91.97
54854;BME280;40747;49.480;8.658;2024-03-02T04:04:10;99042.38;;;6.54;92.17
54854;BME280;40747;49.480;8.658;2024-03-02T04:06:36;99045.94;;;6.52;92.11
54854;BME280;40747;49.480;8.658;2024-03-02T04:09:03;99048.56;;;6.52;92.40
54854;BME280;40747;49.480;8.658;2024-03-02T04:11:29;99050.19;;;6.56;91.97
54854;BME280;40747;49.480;8.658;2024-03-02T04:13:55;99043.91;;;6.35;92.91
54854;BME280;40747;49.480;8.658;2024-03-02T04:16:21;99046.06;;;6.49;92.83
54854;BME280;40747;49.480;8.658;2024-03-02T04:18:47;99057.97;;;6.58;92.25
54854;BME280;40747;49.480;8.658;2024-03-02T04:21:13;99049.91;;;6.64;92.06
54854;BME280;40747;49.480;8.658;2024-03-02T04:23:40;99056.19;;;6.58;92.32
54854;BME280;40747;49.480;8.658;2024-03-02T04:26:06;99047.94;;;6.70;91.81
54854;BME280;40747;49.480;8.658;2024-03-02T04:28:32;99036.78;;;6.65;91.82
54854;BME280;40747;49.480;8.658;2024-03-02T04:30:58;99053.72;;;6.79;91.58
54854;BME280;40747;49.480;8.658;2024-03-02T04:33:24;99037.06;;;6.81;91.13
54854;BME280;40747;49.480;8.658;2024-03-02T04:35:51;99038.94;;;6.78;91.12
54854;BME280;40747;49.480;8.658;2024-03-02T04:38:17;99049.72;;;6.68;90.89
54854;BME280;40747;49.480;8.658;2024-03-02T04:40:43;99042.69;;;6.70;91.28
54854;BME280;40747;49.480;8.658;2024-03-02T04:43:09;99049.53;;;6.75;90.96
54854;BME280;40747;49.480;8.658;2024-03-02T04:45:38;99044.59;;;6.91;90.58
54854;BME280;40747;49.480;8.658;2024-03-02T04:48:05;99044.59;;;6.91;90.03
54854;BME280;40747;49.480;8.658;2024-03-02T04:50:32;99053.53;;;6.85;90.25
54854;BME280;40747;49.480;8.658;2024-03-02T04:52:58;99043.06;;;6.85;90.13
54854;BME280;40747;49.480;8.658;2024-03-02T04:55:24;99054.34;;;6.87;90.10
54854;BME280;40747;49.480;8.658;2024-03-02T04:57:53;99050.06;;;6.84;90.10
54854;BME280;40747;49.480;8.658;2024-03-02T05:00:22;99046.63;;;6.82;91.45
54854;BME280;40747;49.480;8.658;2024-03-02T05:02:48;99051.59;;;6.90;90.70
54854;BME280;40747;49.480;8.658;2024-03-02T05:05:14;99059.50;;;6.88;90.24
54854;BME280;40747;49.480;8.658;2024-03-02T05:07:41;99067.91;;;6.73;90.63
54854;BME280;40747;49.480;8.658;2024-03-02T05:10:09;99065.75;;;6.84;90.12
54854;BME280;40747;49.480;8.658;2024-03-02T05:12:38;99069.22;;;6.85;89.96
54854;BME280;40747;49.480;8.658;2024-03-02T05:15:11;99080.97;;;6.98;90.32
54854;BME280;40747;49.480;8.658;2024-03-02T05:17:39;99084.59;;;6.94;90.12
54854;BME280;40747;49.480;8.658;2024-03-02T05:20:06;99082.84;;;6.95;89.63
54854;BME280;40747;49.480;8.658;2024-03-02T05:22:36;99102.91;;;6.94;89.81
54854;BME280;40747;49.480;8.658;2024-03-02T05:25:06;99094.78;;;7.02;89.71
54854;BME280;40747;49.480;8.658;2024-03-02T05:27:33;99095.66;;;7.02;89.26
54854;BME280;40747;49.480;8.658;2024-03-02T05:29:59;99103.78;;;6.95;89.09
54854;BME280;40747;49.480;8.658;2024-03-02T05:32:25;99103.94;;;6.90;88.96
54854;BME280;40747;49.480;8.658;2024-03-02T05:34:52;99100.31;;;6.94;89.17
54854;BME280;40747;49.480;8.658;2024-03-02T05:37:18;99100.47;;;6.89;89.10
54854;BME280;40747;49.480;8.658;2024-03-02T05:39:45;99108.50;;;6.85;89.89
54854;BME280;40747;49.480;8.658;2024-03-02T05:42:12;99098.13;;;6.82;89.84
54854;BME280;40747;49.480;8.658;2024-03-02T05:44:38;99100.69;;;6.83;89.57
54854;BME280;40747;49.480;8.658;2024-03-02T05:47:05;99097.81;;;6.91;89.29
54854;BME280;40747;49.480;8.658;2024-03-02T05:49:35;99102.69;;;6.77;88.54
54854;BME280;40747;49.480;8.658;2024-03-02T05:52:00;99105.72;;;6.64;88.06
54854;BME280;40747;49.480;8.658;2024-03-02T05:54:26;99103.56;;;6.50;88.52
54854;BME280;40747;49.480;8.658;2024-03-02T05:56:53;99105.91;;;6.31;89.77
54854;BME280;40747;49.480;8.658;2024-03-02T05:59:19;99099.53;;;6.13;91.23
54854;BME280;40747;49.480;8.658;2024-03-02T06:01:46;99082.75;;;6.20;91.67
54854;BME280;40747;49.480;8.658;2024-03-02T06:04:13;99093.59;;;6.35;91.40
54854;BME280;40747;49.480;8.658;2024-03-02T06:06:40;99095.31;;;6.36;91.25
54854;BME280;40747;49.480;8.658;2024-03-02T06:09:06;99084.66;;;6.42;91.15
54854;BME280;40747;49.480;8.658;2024-03-02T06:11:39;99085.38;;;6.46;91.12
54854;BME280;40747;49.480;8.658;2024-03-02T06:14:07;99085.81;;;6.33;91.26
54854;BME280;40747;49.480;8.658;2024-03-02T06:16:34;99071.03;;;6.32;91.02
54854;BME280;40747;49.480;8.658;2024-03-02T06:19:00;99095.13;;;6.42;91.11
54854;BME280;40747;49.480;8.658;2024-03-02T06:21:27;99098.47;;;6.46;90.87
54854;BME280;40747;49.480;8.658;2024-03-02T06:23:54;99101.19;;;6.43;90.99
54854;BME280;40747;49.480;8.658;2024-03-02T06:26:20;99110.56;;;6.50;90.56
54854;BME280;40747;49.480;8.658;2024-03-02T06:28:47;99113.19;;;6.50;90.58
54854;BME280;40747;49.480;8.658;2024-03-02T06:31:13;99113.19;;;6.50;91.17
54854;BME280;40747;49.480;8.658;2024-03-02T06:33:40;99115.88;;;6.47;91.16
54854;BME280;40747;49.480;8.658;2024-03-02T06:36:07;99114.84;;;6.51;90.79
54854;BME280;40747;49.480;8.658;2024-03-02T06:38:37;99111.41;;;6.50;90.78
54854;BME280;40747;49.480;8.658;2024-03-02T06:41:06;99106.13;;;6.52;90.65
54854;BME280;40747;49.480;8.658;2024-03-02T06:43:32;99125.66;;;5.85;92.70
54854;BME280;40747;49.480;8.658;2024-03-02T06:46:01;99133.84;;;5.72;94.27
54854;BME280;40747;49.480;8.658;2024-03-02T06:48:28;99132.28;;;5.67;95.61
54854;BME280;40747;49.480;8.658;2024-03-02T06:50:55;99129.63;;;5.38;94.80
54854;BME280;40747;49.480;8.658;2024-03-02T06:53:22;99138.66;;;4.95;96.62
54854;BME280;40747;49.480;8.658;2024-03-02T06:55:48;99140.53;;;4.90;99.12
54854;BME280;40747;49.480;8.658;2024-03-02T06:58:14;99138.91;;;4.50;100.00
54854;BME280;40747;49.480;8.658;2024-03-02T07:00:44;99138.41;;;4.35;100.00
54854;BME280;40747;49.480;8.658;2024-03-02T07:03:11;99120.53;;;4.20;100.00
54854;BME280;40747;49.480;8.658;2024-03-02T07:05:37;99135.34;;;4.18;100.00
54854;BME280;40747;49.480;8.658;2024-03-02T07:08:04;99144.97;;;4.16;100.00
54854;BME280;40747;49.480;8.658;2024-03-02T07:10:31;99137.94;;;4.18;100.00
54854;BME280;40747;49.480;8.658;2024-03-02T07:12:58;99124.88;;;4.21;100.00
54854;BME280;40747;49.480;8.658;2024-03-02T07:15:24;99140.03;;;4.39;100.00
54854;BME280;40747;49.480;8.658;2024-03-02T07:18:08;99142.41;;;4.85;100.00
54854;BME280;40747;49.480;8.658;2024-03-02T07:20:34;99139.94;;;5.12;100.00
54854;BME280;40747;49.480;8.658;2024-03-02T07:23:00;99126.41;;;4.97;100.00
54854;BME280;40747;49.480;8.658;2024-03-02T07:25:27;99137.06;;;5.21;100.00
54854;BME280;40747;49.480;8.658;2024-03-02T07:27:53;99128.75;;;5.38;100.00
54854;BME280;40747;49.480;8.658;2024-03-02T07:30:19;99128.63;;;5.43;100.00
54854;BME280;40747;49.480;8.658;2024-03-02T07:32:44;99130.09;;;5.53;100.00
54854;BME280;40747;49.480;8.658;2024-03-02T07:35:14;99130.53;;;5.67;99.78
54854;BME280;40747;49.480;8.658;2024-03-02T07:37:41;99137.47;;;5.68;99.56
54854;BME280;40747;49.480;8.658;2024-03-02T07:40:08;99128.50;;;5.77;98.50
54854;BME280;40747;49.480;8.658;2024-03-02T07:42:40;99141.38;;;5.83;98.28
54854;BME280;40747;49.480;8.658;2024-03-02T07:45:06;99141.50;;;5.79;97.97
54854;BME280;40747;49.480;8.658;2024-03-02T07:47:35;99121.97;;;5.92;97.09
54854;BME280;40747;49.480;8.658;2024-03-02T07:50:00;99149.09;;;5.58;98.79
54854;BME280;40747;49.480;8.658;2024-03-02T07:52:25;99159.25;;;5.37;100.00
54854;BME280;40747;49.480;8.658;2024-03-02T07:54:51;99163.13;;;5.22;100.00
54854;BME280;40747;49.480;8.658;2024-03-02T07:57:16;99162.44;;;5.16;100.00
54854;BME280;40747;49.480;8.658;2024-03-02T07:59:42;99164.75;;;5.27;100.00
54854;BME280;40747;49.480;8.658;2024-03-02T08:02:08;99168.16;;;5.30;100.00
54854;BME280;40747;49.480;8.658;2024-03-02T08:04:33;99164.75;;;5.58;100.00
54854;BME280;40747;49.480;8.658;2024-03-02T08:06:58;99160.38;;;5.58;100.00
54854;BME280;40747;49.480;8.658;2024-03-02T08:09:24;99163.75;;;5.62;100.00
54854;BME280;40747;49.480;8.658;2024-03-02T08:11:49;99162.38;;;5.80;100.00
54854;BME280;40747;49.480;8.658;2024-03-02T08:14:14;99163.41;;;5.74;100.00
54854;BME280;40747;49.480;8.658;2024-03-02T08:16:40;99164.84;;;5.85;100.00
54854;BME280;40747;49.480;8.658;2024-03-02T08:19:06;99177.31;;;6.06;100.00
54854;BME280;40747;49.480;8.658;2024-03-02T08:21:31;99177.06;;;6.14;99.39
54854;BME280;40747;49.480;8.658;2024-03-02T08:24:00;99177.91;;;6.15;98.85
54854;BME280;40747;49.480;8.658;2024-03-02T08:26:25;99182.13;;;6.20;99.93
54854;BME280;40747;49.480;8.658;2024-03-02T08:28:50;99176.41;;;6.36;98.82
54854;BME280;40747;49.480;8.658;2024-03-02T08:31:16;99176.66;;;6.28;97.94
54854;BME280;40747;49.480;8.658;2024-03-02T08:33:41;99181.31;;;6.45;97.80
54854;BME280;40747;49.480;8.658;2024-03-02T08:36:07;99179.63;;;6.71;97.43
54854;BME280;40747;49.480;8.658;2024-03-02T08:38:34;99176.66;;;7.07;94.96
54854;BME280;40747;49.480;8.658;2024-03-02T08:41:00;99176.00;;;7.51;92.94
54854;BME280;40747;49.480;8.658;2024-03-02T08:43:25;99175.59;;;7.85;91.17
54854;BME280;40747;49.480;8.658;2024-03-02T08:45:51;99176.59;;;8.05;88.47
54854;BME280;40747;49.480;8.658;2024-03-02T08:48:16;99169.88;;;8.42;87.68
54854;BME280;40747;49.480;8.658;2024-03-02T08:50:41;99165.34;;;8.47;86.75
54854;BME280;40747;49.480;8.658;2024-03-02T08:53:07;99167.34;;;8.63;87.04
54854;BME280;40747;49.480;8.658;2024-03-02T08:55:32;99168.34;;;8.81;85.47
54854;BME280;40747;49.480;8.658;2024-03-02T08:57:57;99171.31;;;8.94;85.13
54854;BME280;40747;49.480;8.658;2024-03-02T09:00:23;99167.88;;;9.33;85.28
54854;BME280;40747;49.480;8.658;2024-03-02T09:02:49;99168.19;;;9.46;84.22
54854;BME280;40747;49.480;8.658;2024-03-02T09:05:14;99164.50;;;9.50;82.95
54854;BME280;40747;49.480;8.658;2024-03-02T09:07:40;99166.44;;;9.46;82.94
54854;BME280;40747;49.480;8.658;2024-03-02T09:10:06;99161.47;;;9.59;82.33
54854;BME280;40747;49.480;8.658;2024-03-02T09:12:32;99163.75;;;9.67;82.64
54854;BME280;40747;49.480;8.658;2024-03-02T09:14:57;99156.50;;;9.91;81.84
54854;BME280;40747;49.480;8.658;2024-03-02T09:17:23;99155.78;;;10.07;79.93
54854;BME280;40747;49.480;8.658;2024-03-02T09:19:48;99151.50;;;10.23;80.03
54854;BME280;40747;49.480;8.658;2024-03-02T09:22:17;99148.78;;;10.79;77.63
54854;BME280;40747;49.480;8.658;2024-03-02T09:24:42;99145.03;;;10.85;75.47
54854;BME280;40747;49.480;8.658;2024-03-02T09:27:07;99145.16;;;11.17;75.33
54854;BME280;40747;49.480;8.658;2024-03-02T09:29:33;99137.25;;;11.50;74.54
54854;BME280;40747;49.480;8.658;2024-03-02T09:31:58;99140.19;;;12.25;73.30
54854;BME280;40747;49.480;8.658;2024-03-02T09:34:23;99145.88;;;12.80;70.52
54854;BME280;40747;49.480;8.658;2024-03-02T09:36:50;99133.50;;;13.11;69.28
54854;BME280;40747;49.480;8.658;2024-03-02T09:39:16;99140.97;;;13.33;67.75
54854;BME280;40747;49.480;8.658;2024-03-02T09:41:43;99143.38;;;13.38;67.66
54854;BME280;40747;49.480;8.658;2024-03-02T09:44:09;99142.63;;;13.05;68.54
54854;BME280;40747;49.480;8.658;2024-03-02T09:46:34;99147.50;;;13.42;67.72
54854;BME280;40747;49.480;8.658;2024-03-02T09:49:02;99142.78;;;13.47;67.31
54854;BME280;40747;49.480;8.658;2024-03-02T09:51:28;99139.47;;;13.58;65.49
54854;BME280;40747;49.480;8.658;2024-03-02T09:53:55;99139.66;;;13.69;64.80
54854;BME280;40747;49.480;8.658;2024-03-02T09:56:21;99127.03;;;13.46;65.33
54854;BME280;40747;49.480;8.658;2024-03-02T09:58:47;99141.41;;;13.98;63.77
54854;BME280;40747;49.480;8.658;2024-03-02T10:01:12;99135.22;;;13.55;65.71
54854;BME280;40747;49.480;8.658;2024-03-02T10:03:38;99129.19;;;14.37;63.46
54854;BME280;40747;49.480;8.658;2024-03-02T10:06:24;99125.38;;;14.41;63.36
54854;BME280;40747;49.480;8.658;2024-03-02T10:08:50;99135.56;;;14.47;62.01
54854;BME280;40747;49.480;8.658;2024-03-02T10:14:14;99122.34;;;14.74;62.07
54854;BME280;40747;49.480;8.658;2024-03-02T10:16:41;99112.50;;;13.95;64.36
54854;BME280;40747;49.480;8.658;2024-03-02T10:24:20;99106.13;;;13.55;66.85
54854;BME280;40747;49.480;8.658;2024-03-02T10:26:46;99093.84;;;13.40;66.21
54854;BME280;40747;49.480;8.658;2024-03-02T10:29:12;99094.88;;;13.37;68.09
54854;BME280;40747;49.480;8.658;2024-03-02T10:31:38;99093.44;;;13.60;65.87
54854;BME280;40747;49.480;8.658;2024-03-02T10:34:05;99099.81;;;13.43;65.27
54854;BME280;40747;49.480;8.658;2024-03-02T10:36:32;99100.81;;;13.70;64.39
54854;BME280;40747;49.480;8.658;2024-03-02T10:38:57;99092.59;;;13.60;65.12
54854;BME280;40747;49.480;8.658;2024-03-02T10:41:26;99091.19;;;14.11;65.59
54854;BME280;40747;49.480;8.658;2024-03-02T10:43:56;99100.75;;;13.99;66.58
54854;BME280;40747;49.480;8.658;2024-03-02T10:46:27;99091.56;;;14.32;65.26
54854;BME280;40747;49.480;8.658;2024-03-02T10:48:55;99089.78;;;14.85;62.65
54854;BME280;40747;49.480;8.658;2024-03-02T10:51:21;99085.03;;;15.03;61.97
54854;BME280;40747;49.480;8.658;2024-03-02T10:53:46;99083.66;;;15.11;62.38
54854;BME280;40747;49.480;8.658;2024-03-02T10:56:16;99083.31;;;15.15;62.13
54854;BME280;40747;49.480;8.658;2024-03-02T10:58:50;99079.16;;;15.37;61.71
54854;BME280;40747;49.480;8.658;2024-03-02T11:01:16;99073.81;;;15.76;60.59
54854;BME280;40747;49.480;8.658;2024-03-02T11:03:42;99073.34;;;15.82;59.61
54854;BME280;40747;49.480;8.658;2024-03-02T11:06:11;99062.22;;;15.64;59.81
54854;BME280;40747;49.480;8.658;2024-03-02T11:08:38;99069.00;;;15.81;58.82
54854;BME280;40747;49.480;8.658;2024-03-02T11:11:15;99073.84;;;16.48;56.58
54854;BME280;40747;49.480;8.658;2024-03-02T11:13:42;99074.56;;;16.97;55.39
54854;BME280;40747;49.480;8.658;2024-03-02T11:16:32;99068.34;;;16.74;54.53
54854;BME280;40747;49.480;8.658;2024-03-02T11:19:09;99064.69;;;16.75;54.59
54854;BME280;40747;49.480;8.658;2024-03-02T11:21:36;99063.28;;;16.82;53.74
54854;BME280;40747;49.480;8.658;2024-03-02T11:24:37;99059.13;;;17.25;54.02
54854;BME280;40747;49.480;8.658;2024-03-02T11:27:06;99052.09;;;17.13;53.98
54854;BME280;40747;49.480;8.658;2024-03-02T11:32:25;99044.72;;;17.05;54.90
54854;BME280;40747;49.480;8.658;2024-03-02T11:34:50;99036.97;;;16.91;53.82
54854;BME280;40747;49.480;8.658;2024-03-02T11:37:19;99027.75;;;16.83;54.14
54854;BME280;40747;49.480;8.658;2024-03-02T11:39:51;99025.69;;;17.55;50.71
54854;BME280;40747;49.480;8.658;2024-03-02T11:42:16;99030.38;;;17.74;48.60
54854;BME280;40747;49.480;8.658;2024-03-02T11:44:46;99024.03;;;17.98;47.94
54854;BME280;40747;49.480;8.658;2024-03-02T11:47:14;99026.75;;;17.75;47.44
54854;BME280;40747;49.480;8.658;2024-03-02T11:49:41;99015.66;;;17.47;46.99
54854;BME280;40747;49.480;8.658;2024-03-02T11:52:09;99010.97;;;17.40;47.51
54854;BME280;40747;49.480;8.658;2024-03-02T11:54:36;99012.72;;;17.73;49.43
54854;BME280;40747;49.480;8.658;2024-03-02T11:57:05;99005.53;;;17.85;47.98
54854;BME280;40747;49.480;8.658;2024-03-02T11:59:31;99008.31;;;17.95;48.05
54854;BME280;40747;49.480;8.658;2024-03-02T12:01:57;99004.06;;;18.04;47.28
54854;BME280;40747;49.480;8.658;2024-03-02T12:04:23;98978.19;;;17.94;47.49
54854;BME280;40747;49.480;8.658;2024-03-02T12:06:59;98984.13;;;18.19;47.78
54854;BME280;40747;49.480;8.658;2024-03-02T12:09:25;98978.97;;;18.27;48.07
54854;BME280;40747;49.480;8.658;2024-03-02T12:12:04;98973.22;;;18.43;47.69
54854;BME280;40747;49.480;8.658;2024-03-02T12:14:31;98978.13;;;18.69;47.84
54854;BME280;40747;49.480;8.658;2024-03-02T12:16:56;98969.88;;;18.72;48.08
54854;BME280;40747;49.480;8.658;2024-03-02T12:19:24;98961.16;;;18.70;48.30
54854;BME280;40747;49.480;8.658;2024-03-02T12:21:49;98958.75;;;18.25;48.75
54854;BME280;40747;49.480;8.658;2024-03-02T12:24:14;98955.00;;;18.06;48.97
54854;BME280;40747;49.480;8.658;2024-03-02T12:26:40;98957.59;;;18.17;49.13
54854;BME280;40747;49.480;8.658;2024-03-02T12:29:06;98968.59;;;17.92;49.08
54854;BME280;40747;49.480;8.658;2024-03-02T12:31:31;98967.13;;;17.99;49.50
54854;BME280;40747;49.480;8.658;2024-03-02T12:33:57;98959.53;;;18.15;49.09
54854;BME280;40747;49.480;8.658;2024-03-02T12:36:23;98958.50;;;18.28;48.73
54854;BME280;40747;49.480;8.658;2024-03-02T12:38:52;98957.59;;;18.17;48.60
54854;BME280;40747;49.480;8.658;2024-03-02T12:41:18;98961.97;;;18.18;49.31
54854;BME280;40747;49.480;8.658;2024-03-02T12:43:43;98956.47;;;18.41;49.27
54854;BME280;40747;49.480;8.658;2024-03-02T12:46:08;98954.53;;;18.43;48.72
54854;BME280;40747;49.480;8.658;2024-03-02T12:48:34;98953.97;;;18.40;48.79
54854;BME280;40747;49.480;8.658;2024-03-02T12:51:01;98943.97;;;18.11;48.75
54854;BME280;40747;49.480;8.658;2024-03-02T12:53:26;98946.81;;;18.40;48.45
54854;BME280;40747;49.480;8.658;2024-03-02T12:55:52;98932.28;;;18.54;47.64
54854;BME280;40747;49.480;8.658;2024-03-02T12:58:21;98927.22;;;18.51;47.98
54854;BME280;40747;49.480;8.658;2024-03-02T13:00:47;98930.63;;;18.53;48.34
54854;BME280;40747;49.480;8.658;2024-03-02T13:03:13;98923.59;;;18.52;48.64
54854;BME280;40747;49.480;8.658;2024-03-02T13:05:39;98913.72;;;18.43;47.77
54854;BME280;40747;49.480;8.658;2024-03-02T13:08:05;98921.66;;;18.64;47.33
54854;BME280;40747;49.480;8.658;2024-03-02T13:10:32;98916.09;;;18.67;47.54
54854;BME280;40747;49.480;8.658;2024-03-02T13:12:58;98919.44;;;18.69;46.93
54854;BME280;40747;49.480;8.658;2024-03-02T13:15:23;98915.75;;;18.60;47.01
54854;BME280;40747;49.480;8.658;2024-03-02T13:17:49;98915.13;;;18.47;46.89
54854;BME280;40747;49.480;8.658;2024-03-02T13:20:16;98913.44;;;18.46;47.26